Pagina principale
METAR-TAF:

METAR-TAF

Aeroporti :

Aeroporto di Crotone

Crotone, Italia

latitudine: 39-00N, longitudine: 017-04E, altezza: 155 m

Osservazione

Il bollettino è stato emesso 44 minuti fa, alle 13:50 UTC
Vento 9 kt da sud
Temperature 16°C
Umidità 82%
Pressione 1015 hPa
Visibilità 10 km o più
Nubi sparse ad un'altezza di 3000 ft

METAR: LIBC 061350Z 19009KT 9999 SCT030 16/13 Q1015

Ora: 15:34 (14:34 UTC)

Previsione

Il bollettino è stato emesso 3 ore e 34 minuti fa, alle 11:00 UTC
Previsione valida dal 06 alle 12 UTC al 07 alle 12 UTC
Vento 10 kt da sud/sud-ovest
Visibilità 10 km o più
Nubi sparse ad un'altezza di 4000 ft
Evoluzione graduale
dal 06 alle 16 UTC al 06 alle 18 UTC
Vento 5 kt da direzioni variabili
Temporaneamente
dal 07 alle 00 UTC al 07 alle 06 UTC
Visibilità: 3000 m
foschia

TAF: LIBC 061100Z 0612/0712 20010KT 9999 SCT040 BECMG 0616/0618 VRB05KT TEMPO 0700/0706 3000 BR

Osservazioni e previsioni meteorologiche di più di 4000 aeroporti (messaggi METAR e TAF).

Le stazioni disponibili sono rappresentate dai dischi gialli e rossi sulla carta.

Puntare il mouse per vedere il nome della stazione.

Clicca sopra per visualizzare le osservazioni e previsioni meteorologiche.

Per cambiare la mappa : fare clic sui pulsanti verdi con una croce nera per ingrandire, il pulsante verde con un trattino per diminuire, o sulla freccia verde per le mappe adiacenti.


METAR-TAF: